logo
Search for airport 
image banner adimage banner adimage banner ad
image banner ad

EHDL - Arnhem/Deelen

Located in Arnhem, Netherlands

ICAO - EHDL, IATA - QAR

Data provided by Airmate  

General information

Coordinates: N52°3'35" E5°52'19"
Elevation is 158 feet MSL.
Magnetic variation is +1.967° East
View others Airports in Gelderland

Operational data

Special qualification required
Current time UTC:
Current local time:
Weather
METAR: EHDL 161825Z AUTO 22009KT 150V280 9999 BKN038 OVC043 17/15 Q1012 BLU
View NOTAMs / SUP AIP / TFR affecting this airport [VIEW]
Communications frequencies: [VIEW]

Runways:

RWY identifierQFULength (ft)Width (ft)SurfaceLDA (ft)
0117°3431164CONC+ASPH3411
19197°3431164CONC+ASPH2536

Airport contact information

Address: Arnhem Netherlands

Other aviation service providers

Flight schools

Orbit Groundschool B.V.

Orbit Groundschool B.V.

Bear Helicopters

Bear Helicopters
info@bearhelicopters.nl+31621978179
+31621978179

Heliair B.V.

Heliair B.V.
info@heliair.nl+31318734120

Aviation club (not for profit)

Delftsche Studenten Aeroclub

Delftsche Studenten Aeroclub
info@dsaeroclub.nl+31610840928
+31610840928

Satellite view of EHDL